sensor_id;sensor_type;location;lat;lon;timestamp;P1;durP1;ratioP1;P2;durP2;ratioP2
28296;SDS011;62078;49.366;8.172;2022-11-02T00:00:48;6.32;;;1.90;;
28296;SDS011;62078;49.366;8.172;2022-11-02T00:03:14;6.25;;;1.85;;
28296;SDS011;62078;49.366;8.172;2022-11-02T00:05:40;5.93;;;1.75;;
28296;SDS011;62078;49.366;8.172;2022-11-02T00:08:05;5.38;;;1.90;;
28296;SDS011;62078;49.366;8.172;2022-11-02T00:10:31;8.10;;;1.60;;
28296;SDS011;62078;49.366;8.172;2022-11-02T00:12:57;5.40;;;1.85;;
28296;SDS011;62078;49.366;8.172;2022-11-02T00:15:23;11.35;;;2.08;;
28296;SDS011;62078;49.366;8.172;2022-11-02T00:17:53;5.20;;;1.70;;
28296;SDS011;62078;49.366;8.172;2022-11-02T00:20:20;8.35;;;1.95;;
28296;SDS011;62078;49.366;8.172;2022-11-02T00:22:47;7.38;;;2.17;;
28296;SDS011;62078;49.366;8.172;2022-11-02T00:25:15;7.82;;;1.63;;
28296;SDS011;62078;49.366;8.172;2022-11-02T00:27:44;4.05;;;1.33;;
28296;SDS011;62078;49.366;8.172;2022-11-02T00:30:10;7.63;;;2.35;;
28296;SDS011;62078;49.366;8.172;2022-11-02T00:32:35;5.00;;;1.50;;
28296;SDS011;62078;49.366;8.172;2022-11-02T00:35:01;6.88;;;1.45;;
28296;SDS011;62078;49.366;8.172;2022-11-02T00:37:27;7.75;;;1.80;;
28296;SDS011;62078;49.366;8.172;2022-11-02T00:39:53;5.75;;;1.83;;
28296;SDS011;62078;49.366;8.172;2022-11-02T00:42:18;5.53;;;1.50;;
28296;SDS011;62078;49.366;8.172;2022-11-02T00:44:44;7.88;;;1.83;;
28296;SDS011;62078;49.366;8.172;2022-11-02T00:47:10;4.03;;;1.38;;
28296;SDS011;62078;49.366;8.172;2022-11-02T00:49:36;10.32;;;1.85;;
28296;SDS011;62078;49.366;8.172;2022-11-02T00:52:02;4.93;;;1.90;;
28296;SDS011;62078;49.366;8.172;2022-11-02T00:54:28;4.60;;;1.48;;
28296;SDS011;62078;49.366;8.172;2022-11-02T00:56:55;5.40;;;1.80;;
28296;SDS011;62078;49.366;8.172;2022-11-02T00:59:21;4.82;;;1.73;;
28296;SDS011;62078;49.366;8.172;2022-11-02T01:01:47;6.28;;;1.65;;
28296;SDS011;62078;49.366;8.172;2022-11-02T01:04:13;3.78;;;1.60;;
28296;SDS011;62078;49.366;8.172;2022-11-02T01:06:41;5.18;;;1.88;;
28296;SDS011;62078;49.366;8.172;2022-11-02T01:09:08;5.15;;;1.80;;
28296;SDS011;62078;49.366;8.172;2022-11-02T01:11:34;5.60;;;1.88;;
28296;SDS011;62078;49.366;8.172;2022-11-02T01:14:00;4.53;;;1.30;;
28296;SDS011;62078;49.366;8.172;2022-11-02T01:16:26;4.18;;;1.50;;
28296;SDS011;62078;49.366;8.172;2022-11-02T01:18:54;7.20;;;1.95;;
28296;SDS011;62078;49.366;8.172;2022-11-02T01:21:21;4.57;;;1.48;;
28296;SDS011;62078;49.366;8.172;2022-11-02T01:23:47;4.70;;;1.58;;
28296;SDS011;62078;49.366;8.172;2022-11-02T01:26:13;4.43;;;2.00;;
28296;SDS011;62078;49.366;8.172;2022-11-02T01:28:40;3.90;;;1.48;;
28296;SDS011;62078;49.366;8.172;2022-11-02T01:31:06;6.90;;;1.50;;
28296;SDS011;62078;49.366;8.172;2022-11-02T01:33:33;3.88;;;1.40;;
28296;SDS011;62078;49.366;8.172;2022-11-02T01:36:00;8.63;;;1.77;;
28296;SDS011;62078;49.366;8.172;2022-11-02T01:38:27;4.22;;;1.50;;
28296;SDS011;62078;49.366;8.172;2022-11-02T01:40:53;6.68;;;1.58;;
28296;SDS011;62078;49.366;8.172;2022-11-02T01:45:44;3.28;;;1.45;;
28296;SDS011;62078;49.366;8.172;2022-11-02T01:48:11;4.47;;;1.38;;
28296;SDS011;62078;49.366;8.172;2022-11-02T01:50:36;5.65;;;1.60;;
28296;SDS011;62078;49.366;8.172;2022-11-02T01:53:03;6.30;;;1.55;;
28296;SDS011;62078;49.366;8.172;2022-11-02T01:55:29;4.15;;;1.30;;
28296;SDS011;62078;49.366;8.172;2022-11-02T01:57:57;4.03;;;1.45;;
28296;SDS011;62078;49.366;8.172;2022-11-02T02:00:26;4.97;;;1.45;;
28296;SDS011;62078;49.366;8.172;2022-11-02T02:03:01;4.85;;;1.48;;
28296;SDS011;62078;49.366;8.172;2022-11-02T02:05:42;3.42;;;1.20;;
28296;SDS011;62078;49.366;8.172;2022-11-02T02:08:14;4.75;;;1.55;;
28296;SDS011;62078;49.366;8.172;2022-11-02T02:10:42;6.72;;;1.55;;
28296;SDS011;62078;49.366;8.172;2022-11-02T02:13:08;3.83;;;1.30;;
28296;SDS011;62078;49.366;8.172;2022-11-02T02:15:38;6.10;;;1.50;;
28296;SDS011;62078;49.366;8.172;2022-11-02T02:18:45;5.43;;;1.40;;
28296;SDS011;62078;49.366;8.172;2022-11-02T02:21:18;3.72;;;1.15;;
28296;SDS011;62078;49.366;8.172;2022-11-02T02:27:19;5.82;;;1.52;;
28296;SDS011;62078;49.366;8.172;2022-11-02T02:29:51;3.95;;;1.55;;
28296;SDS011;62078;49.366;8.172;2022-11-02T02:32:35;4.10;;;1.33;;
28296;SDS011;62078;49.366;8.172;2022-11-02T02:38:09;6.03;;;1.42;;
28296;SDS011;62078;49.366;8.172;2022-11-02T02:40:39;4.97;;;1.40;;
28296;SDS011;62078;49.366;8.172;2022-11-02T02:43:14;4.63;;;1.48;;
28296;SDS011;62078;49.366;8.172;2022-11-02T02:45:48;3.75;;;1.30;;
28296;SDS011;62078;49.366;8.172;2022-11-02T02:48:21;6.20;;;1.67;;
28296;SDS011;62078;49.366;8.172;2022-11-02T02:50:50;4.85;;;1.55;;
28296;SDS011;62078;49.366;8.172;2022-11-02T02:53:21;2.85;;;1.23;;
28296;SDS011;62078;49.366;8.172;2022-11-02T02:55:52;6.93;;;1.50;;
28296;SDS011;62078;49.366;8.172;2022-11-02T02:58:23;3.72;;;1.40;;
28296;SDS011;62078;49.366;8.172;2022-11-02T03:00:52;3.38;;;1.27;;
28296;SDS011;62078;49.366;8.172;2022-11-02T03:03:20;4.03;;;1.30;;
28296;SDS011;62078;49.366;8.172;2022-11-02T03:08:29;3.13;;;1.25;;
28296;SDS011;62078;49.366;8.172;2022-11-02T03:11:14;3.20;;;1.23;;
28296;SDS011;62078;49.366;8.172;2022-11-02T03:13:59;5.40;;;1.67;;
28296;SDS011;62078;49.366;8.172;2022-11-02T03:22:05;3.50;;;1.13;;
28296;SDS011;62078;49.366;8.172;2022-11-02T03:24:53;4.63;;;1.30;;
28296;SDS011;62078;49.366;8.172;2022-11-02T03:30:18;3.25;;;1.50;;
28296;SDS011;62078;49.366;8.172;2022-11-02T03:38:12;4.10;;;1.25;;
28296;SDS011;62078;49.366;8.172;2022-11-02T03:40:42;5.70;;;1.50;;
28296;SDS011;62078;49.366;8.172;2022-11-02T03:43:11;4.03;;;1.30;;
28296;SDS011;62078;49.366;8.172;2022-11-02T03:45:39;3.28;;;1.20;;
28296;SDS011;62078;49.366;8.172;2022-11-02T03:48:11;3.53;;;1.30;;
28296;SDS011;62078;49.366;8.172;2022-11-02T03:50:45;4.15;;;1.40;;
28296;SDS011;62078;49.366;8.172;2022-11-02T03:53:27;3.63;;;1.10;;
28296;SDS011;62078;49.366;8.172;2022-11-02T03:56:28;4.25;;;1.30;;
28296;SDS011;62078;49.366;8.172;2022-11-02T03:59:21;4.13;;;1.50;;
28296;SDS011;62078;49.366;8.172;2022-11-02T04:01:48;4.10;;;1.30;;
28296;SDS011;62078;49.366;8.172;2022-11-02T04:04:15;2.78;;;0.95;;
28296;SDS011;62078;49.366;8.172;2022-11-02T04:06:41;3.95;;;1.35;;
28296;SDS011;62078;49.366;8.172;2022-11-02T04:09:08;4.18;;;1.52;;
28296;SDS011;62078;49.366;8.172;2022-11-02T04:11:35;3.05;;;1.27;;
28296;SDS011;62078;49.366;8.172;2022-11-02T04:14:19;2.78;;;1.00;;
28296;SDS011;62078;49.366;8.172;2022-11-02T04:17:06;2.75;;;1.10;;
28296;SDS011;62078;49.366;8.172;2022-11-02T04:19:53;4.13;;;1.63;;
28296;SDS011;62078;49.366;8.172;2022-11-02T04:22:20;4.90;;;1.48;;
28296;SDS011;62078;49.366;8.172;2022-11-02T04:25:06;3.35;;;1.30;;
28296;SDS011;62078;49.366;8.172;2022-11-02T04:27:40;3.03;;;1.30;;
28296;SDS011;62078;49.366;8.172;2022-11-02T04:30:06;5.53;;;1.70;;
28296;SDS011;62078;49.366;8.172;2022-11-02T04:32:36;3.80;;;1.25;;
28296;SDS011;62078;49.366;8.172;2022-11-02T04:35:24;5.40;;;1.50;;
28296;SDS011;62078;49.366;8.172;2022-11-02T04:37:51;7.13;;;1.58;;
28296;SDS011;62078;49.366;8.172;2022-11-02T04:40:35;3.78;;;1.30;;
28296;SDS011;62078;49.366;8.172;2022-11-02T04:43:01;6.10;;;1.90;;
28296;SDS011;62078;49.366;8.172;2022-11-02T04:45:27;5.93;;;1.10;;
28296;SDS011;62078;49.366;8.172;2022-11-02T04:47:58;3.10;;;1.13;;
28296;SDS011;62078;49.366;8.172;2022-11-02T04:50:25;4.20;;;1.20;;
28296;SDS011;62078;49.366;8.172;2022-11-02T04:52:54;2.78;;;1.00;;
28296;SDS011;62078;49.366;8.172;2022-11-02T04:55:21;4.88;;;1.33;;
28296;SDS011;62078;49.366;8.172;2022-11-02T04:57:46;6.13;;;1.10;;
28296;SDS011;62078;49.366;8.172;2022-11-02T05:00:12;4.20;;;1.35;;
28296;SDS011;62078;49.366;8.172;2022-11-02T05:02:39;4.63;;;1.30;;
28296;SDS011;62078;49.366;8.172;2022-11-02T05:05:05;3.72;;;1.40;;
28296;SDS011;62078;49.366;8.172;2022-11-02T05:07:31;3.65;;;1.40;;
28296;SDS011;62078;49.366;8.172;2022-11-02T05:09:56;3.72;;;1.15;;
28296;SDS011;62078;49.366;8.172;2022-11-02T05:12:22;4.97;;;1.33;;
28296;SDS011;62078;49.366;8.172;2022-11-02T05:14:47;3.03;;;1.20;;
28296;SDS011;62078;49.366;8.172;2022-11-02T05:17:13;5.35;;;1.30;;
28296;SDS011;62078;49.366;8.172;2022-11-02T05:19:40;3.72;;;1.15;;
28296;SDS011;62078;49.366;8.172;2022-11-02T05:22:06;3.70;;;1.15;;
28296;SDS011;62078;49.366;8.172;2022-11-02T05:24:32;4.82;;;1.50;;
28296;SDS011;62078;49.366;8.172;2022-11-02T05:26:58;3.47;;;1.02;;
28296;SDS011;62078;49.366;8.172;2022-11-02T05:29:26;3.85;;;1.30;;
28296;SDS011;62078;49.366;8.172;2022-11-02T05:31:52;5.20;;;1.48;;
28296;SDS011;62078;49.366;8.172;2022-11-02T05:34:17;4.47;;;1.50;;
28296;SDS011;62078;49.366;8.172;2022-11-02T05:36:43;4.07;;;1.55;;
28296;SDS011;62078;49.366;8.172;2022-11-02T05:39:11;3.30;;;1.67;;
28296;SDS011;62078;49.366;8.172;2022-11-02T05:41:37;4.55;;;1.27;;
28296;SDS011;62078;49.366;8.172;2022-11-02T05:44:03;5.57;;;1.30;;
28296;SDS011;62078;49.366;8.172;2022-11-02T05:46:28;4.05;;;1.30;;
28296;SDS011;62078;49.366;8.172;2022-11-02T05:48:54;5.05;;;1.20;;
28296;SDS011;62078;49.366;8.172;2022-11-02T05:51:20;5.13;;;1.13;;
28296;SDS011;62078;49.366;8.172;2022-11-02T05:53:46;9.50;;;1.40;;
28296;SDS011;62078;49.366;8.172;2022-11-02T05:56:11;7.10;;;1.60;;
28296;SDS011;62078;49.366;8.172;2022-11-02T05:58:38;18.50;;;1.83;;
28296;SDS011;62078;49.366;8.172;2022-11-02T06:01:05;4.70;;;1.60;;
28296;SDS011;62078;49.366;8.172;2022-11-02T06:03:32;6.93;;;1.48;;
28296;SDS011;62078;49.366;8.172;2022-11-02T06:05:58;8.30;;;1.70;;
28296;SDS011;62078;49.366;8.172;2022-11-02T06:08:26;6.18;;;1.73;;
28296;SDS011;62078;49.366;8.172;2022-11-02T06:10:52;9.00;;;1.92;;
28296;SDS011;62078;49.366;8.172;2022-11-02T06:13:18;8.63;;;1.77;;
28296;SDS011;62078;49.366;8.172;2022-11-02T06:15:44;9.10;;;1.70;;
28296;SDS011;62078;49.366;8.172;2022-11-02T06:18:10;6.53;;;1.55;;
28296;SDS011;62078;49.366;8.172;2022-11-02T06:20:36;4.70;;;1.42;;
28296;SDS011;62078;49.366;8.172;2022-11-02T06:23:02;6.88;;;1.88;;
28296;SDS011;62078;49.366;8.172;2022-11-02T06:25:27;5.95;;;1.65;;
28296;SDS011;62078;49.366;8.172;2022-11-02T06:27:53;6.53;;;1.60;;
28296;SDS011;62078;49.366;8.172;2022-11-02T06:30:24;4.65;;;1.75;;
28296;SDS011;62078;49.366;8.172;2022-11-02T06:32:50;9.32;;;3.20;;
28296;SDS011;62078;49.366;8.172;2022-11-02T06:35:18;11.98;;;4.40;;
28296;SDS011;62078;49.366;8.172;2022-11-02T06:37:45;7.28;;;3.15;;
28296;SDS011;62078;49.366;8.172;2022-11-02T06:40:11;10.82;;;3.53;;
28296;SDS011;62078;49.366;8.172;2022-11-02T06:42:38;8.88;;;2.75;;
28296;SDS011;62078;49.366;8.172;2022-11-02T06:45:04;9.93;;;3.60;;
28296;SDS011;62078;49.366;8.172;2022-11-02T06:47:31;11.52;;;4.00;;
28296;SDS011;62078;49.366;8.172;2022-11-02T06:49:58;8.18;;;3.38;;
28296;SDS011;62078;49.366;8.172;2022-11-02T06:52:27;12.55;;;4.10;;
28296;SDS011;62078;49.366;8.172;2022-11-02T06:54:53;15.50;;;4.10;;
28296;SDS011;62078;49.366;8.172;2022-11-02T06:57:19;8.20;;;3.42;;
28296;SDS011;62078;49.366;8.172;2022-11-02T06:59:45;11.02;;;3.83;;
28296;SDS011;62078;49.366;8.172;2022-11-02T07:02:11;10.32;;;3.38;;
28296;SDS011;62078;49.366;8.172;2022-11-02T07:04:36;11.73;;;4.28;;
28296;SDS011;62078;49.366;8.172;2022-11-02T07:07:02;13.48;;;4.28;;
28296;SDS011;62078;49.366;8.172;2022-11-02T07:09:28;10.82;;;4.28;;
28296;SDS011;62078;49.366;8.172;2022-11-02T07:11:54;15.85;;;5.22;;
28296;SDS011;62078;49.366;8.172;2022-11-02T07:14:19;13.80;;;5.18;;
28296;SDS011;62078;49.366;8.172;2022-11-02T07:16:45;16.98;;;4.97;;
28296;SDS011;62078;49.366;8.172;2022-11-02T07:19:11;16.27;;;4.85;;
28296;SDS011;62078;49.366;8.172;2022-11-02T07:21:36;15.95;;;5.00;;
28296;SDS011;62078;49.366;8.172;2022-11-02T07:24:02;13.70;;;4.38;;
28296;SDS011;62078;49.366;8.172;2022-11-02T07:26:28;18.50;;;4.40;;
28296;SDS011;62078;49.366;8.172;2022-11-02T07:28:54;11.73;;;4.30;;
28296;SDS011;62078;49.366;8.172;2022-11-02T07:31:20;14.30;;;4.03;;
28296;SDS011;62078;49.366;8.172;2022-11-02T07:33:46;12.40;;;4.38;;
28296;SDS011;62078;49.366;8.172;2022-11-02T07:36:11;11.20;;;4.43;;
28296;SDS011;62078;49.366;8.172;2022-11-02T07:38:37;11.25;;;4.10;;
28296;SDS011;62078;49.366;8.172;2022-11-02T07:41:03;9.98;;;3.55;;
28296;SDS011;62078;49.366;8.172;2022-11-02T07:43:28;10.13;;;3.97;;
28296;SDS011;62078;49.366;8.172;2022-11-02T07:45:54;12.65;;;4.28;;
28296;SDS011;62078;49.366;8.172;2022-11-02T07:48:20;9.20;;;4.13;;
28296;SDS011;62078;49.366;8.172;2022-11-02T07:50:46;13.80;;;4.32;;
28296;SDS011;62078;49.366;8.172;2022-11-02T07:53:11;14.77;;;4.43;;
28296;SDS011;62078;49.366;8.172;2022-11-02T07:55:38;9.07;;;3.70;;
28296;SDS011;62078;49.366;8.172;2022-11-02T07:58:05;10.73;;;3.80;;
28296;SDS011;62078;49.366;8.172;2022-11-02T08:00:34;13.10;;;4.38;;
28296;SDS011;62078;49.366;8.172;2022-11-02T08:03:02;9.65;;;4.38;;
28296;SDS011;62078;49.366;8.172;2022-11-02T08:05:29;15.77;;;4.85;;
28296;SDS011;62078;49.366;8.172;2022-11-02T08:08:01;11.15;;;3.97;;
28296;SDS011;62078;49.366;8.172;2022-11-02T08:10:31;11.25;;;4.13;;
28296;SDS011;62078;49.366;8.172;2022-11-02T08:12:58;11.38;;;3.83;;
28296;SDS011;62078;49.366;8.172;2022-11-02T08:15:24;10.15;;;4.32;;
28296;SDS011;62078;49.366;8.172;2022-11-02T08:20:29;9.00;;;3.45;;
28296;SDS011;62078;49.366;8.172;2022-11-02T08:22:55;13.85;;;3.75;;
28296;SDS011;62078;49.366;8.172;2022-11-02T08:25:21;10.60;;;3.75;;
28296;SDS011;62078;49.366;8.172;2022-11-02T08:27:46;18.60;;;4.00;;
28296;SDS011;62078;49.366;8.172;2022-11-02T08:30:12;11.95;;;3.53;;
28296;SDS011;62078;49.366;8.172;2022-11-02T08:32:38;12.93;;;2.83;;
28296;SDS011;62078;49.366;8.172;2022-11-02T08:35:04;14.05;;;2.70;;
28296;SDS011;62078;49.366;8.172;2022-11-02T08:37:30;18.38;;;3.45;;
28296;SDS011;62078;49.366;8.172;2022-11-02T08:39:55;9.30;;;2.50;;
28296;SDS011;62078;49.366;8.172;2022-11-02T08:42:21;11.45;;;2.72;;
28296;SDS011;62078;49.366;8.172;2022-11-02T08:44:46;11.90;;;2.67;;
28296;SDS011;62078;49.366;8.172;2022-11-02T08:47:12;13.07;;;2.92;;
28296;SDS011;62078;49.366;8.172;2022-11-02T08:49:39;12.95;;;2.60;;
28296;SDS011;62078;49.366;8.172;2022-11-02T08:52:05;14.43;;;2.58;;
28296;SDS011;62078;49.366;8.172;2022-11-02T08:54:31;14.75;;;3.22;;
28296;SDS011;62078;49.366;8.172;2022-11-02T08:56:57;16.60;;;3.13;;
28296;SDS011;62078;49.366;8.172;2022-11-02T12:51:10;8.33;;;2.10;;
28296;SDS011;62078;49.366;8.172;2022-11-02T12:53:43;6.27;;;2.03;;
28296;SDS011;62078;49.366;8.172;2022-11-02T12:56:17;6.60;;;1.95;;
28296;SDS011;62078;49.366;8.172;2022-11-02T12:58:49;6.95;;;2.08;;
28296;SDS011;62078;49.366;8.172;2022-11-02T13:03:56;5.63;;;1.70;;
28296;SDS011;62078;49.366;8.172;2022-11-02T13:06:36;7.43;;;1.40;;
28296;SDS011;62078;49.366;8.172;2022-11-02T13:09:12;5.53;;;1.83;;
28296;SDS011;62078;49.366;8.172;2022-11-02T13:12:02;7.25;;;2.20;;
28296;SDS011;62078;49.366;8.172;2022-11-02T13:14:40;5.50;;;1.65;;
28296;SDS011;62078;49.366;8.172;2022-11-02T13:17:13;6.25;;;1.88;;
28296;SDS011;62078;49.366;8.172;2022-11-02T13:20:04;7.68;;;2.08;;
28296;SDS011;62078;49.366;8.172;2022-11-02T13:22:38;7.38;;;1.83;;
28296;SDS011;62078;49.366;8.172;2022-11-02T13:25:11;8.82;;;1.80;;
28296;SDS011;62078;49.366;8.172;2022-11-02T13:28:01;6.80;;;1.92;;
28296;SDS011;62078;49.366;8.172;2022-11-02T13:30:33;6.85;;;1.45;;
28296;SDS011;62078;49.366;8.172;2022-11-02T13:33:20;6.13;;;1.80;;
28296;SDS011;62078;49.366;8.172;2022-11-02T13:35:50;4.88;;;1.70;;
28296;SDS011;62078;49.366;8.172;2022-11-02T13:38:28;5.63;;;1.67;;
28296;SDS011;62078;49.366;8.172;2022-11-02T13:41:04;4.25;;;1.45;;
28296;SDS011;62078;49.366;8.172;2022-11-02T13:48:59;6.28;;;1.77;;
28296;SDS011;62078;49.366;8.172;2022-11-02T13:51:43;5.38;;;1.90;;
28296;SDS011;62078;49.366;8.172;2022-11-02T13:54:18;6.15;;;1.55;;
28296;SDS011;62078;49.366;8.172;2022-11-02T13:56:50;7.40;;;1.60;;
28296;SDS011;62078;49.366;8.172;2022-11-02T13:59:20;4.85;;;1.67;;
28296;SDS011;62078;49.366;8.172;2022-11-02T14:01:54;8.18;;;1.73;;
28296;SDS011;62078;49.366;8.172;2022-11-02T14:04:22;5.10;;;1.38;;
28296;SDS011;62078;49.366;8.172;2022-11-02T14:06:58;4.70;;;1.70;;
28296;SDS011;62078;49.366;8.172;2022-11-02T14:09:33;4.65;;;1.35;;
28296;SDS011;62078;49.366;8.172;2022-11-02T14:20:37;4.22;;;1.50;;
28296;SDS011;62078;49.366;8.172;2022-11-02T14:33:33;7.05;;;1.75;;
28296;SDS011;62078;49.366;8.172;2022-11-02T14:38:48;8.52;;;1.58;;
28296;SDS011;62078;49.366;8.172;2022-11-02T14:49:29;6.60;;;2.00;;
28296;SDS011;62078;49.366;8.172;2022-11-02T14:54:24;10.40;;;2.20;;
28296;SDS011;62078;49.366;8.172;2022-11-02T14:59:43;15.68;;;2.35;;
28296;SDS011;62078;49.366;8.172;2022-11-02T15:02:20;15.00;;;2.20;;
28296;SDS011;62078;49.366;8.172;2022-11-02T15:04:53;8.70;;;2.22;;
28296;SDS011;62078;49.366;8.172;2022-11-02T15:07:40;8.23;;;2.17;;
28296;SDS011;62078;49.366;8.172;2022-11-02T15:12:42;11.02;;;2.13;;
28296;SDS011;62078;49.366;8.172;2022-11-02T15:20:31;8.40;;;1.75;;
28296;SDS011;62078;49.366;8.172;2022-11-02T15:25:47;6.57;;;1.90;;
28296;SDS011;62078;49.366;8.172;2022-11-02T15:28:16;8.40;;;1.90;;
28296;SDS011;62078;49.366;8.172;2022-11-02T15:30:48;7.55;;;1.95;;
28296;SDS011;62078;49.366;8.172;2022-11-02T15:33:18;6.15;;;1.80;;
28296;SDS011;62078;49.366;8.172;2022-11-02T15:36:00;9.38;;;2.33;;
28296;SDS011;62078;49.366;8.172;2022-11-02T15:38:28;6.72;;;2.17;;
28296;SDS011;62078;49.366;8.172;2022-11-02T15:53:35;10.20;;;2.28;;
28296;SDS011;62078;49.366;8.172;2022-11-02T15:59:10;11.45;;;2.70;;
28296;SDS011;62078;49.366;8.172;2022-11-02T16:02:17;8.45;;;2.65;;
28296;SDS011;62078;49.366;8.172;2022-11-02T16:05:02;12.25;;;3.05;;
28296;SDS011;62078;49.366;8.172;2022-11-02T16:07:30;11.38;;;2.72;;
28296;SDS011;62078;49.366;8.172;2022-11-02T16:10:10;11.82;;;3.00;;
28296;SDS011;62078;49.366;8.172;2022-11-02T16:12:36;11.45;;;3.25;;
28296;SDS011;62078;49.366;8.172;2022-11-02T16:15:10;12.65;;;2.72;;
28296;SDS011;62078;49.366;8.172;2022-11-02T16:17:39;16.27;;;2.22;;
28296;SDS011;62078;49.366;8.172;2022-11-02T16:20:17;12.10;;;2.17;;
28296;SDS011;62078;49.366;8.172;2022-11-02T16:22:49;12.90;;;2.72;;
28296;SDS011;62078;49.366;8.172;2022-11-02T16:25:18;11.18;;;2.33;;
28296;SDS011;62078;49.366;8.172;2022-11-02T16:30:39;9.57;;;2.35;;
28296;SDS011;62078;49.366;8.172;2022-11-02T16:33:05;11.05;;;2.58;;
28296;SDS011;62078;49.366;8.172;2022-11-02T16:35:33;9.13;;;2.17;;
28296;SDS011;62078;49.366;8.172;2022-11-02T16:37:59;8.07;;;2.40;;
28296;SDS011;62078;49.366;8.172;2022-11-02T16:40:25;11.25;;;2.30;;
28296;SDS011;62078;49.366;8.172;2022-11-02T16:42:52;8.43;;;2.33;;
28296;SDS011;62078;49.366;8.172;2022-11-02T16:45:31;7.38;;;2.47;;
28296;SDS011;62078;49.366;8.172;2022-11-02T16:48:25;8.73;;;2.15;;
28296;SDS011;62078;49.366;8.172;2022-11-02T16:51:15;7.57;;;2.38;;
28296;SDS011;62078;49.366;8.172;2022-11-02T16:56:16;4.97;;;1.80;;
28296;SDS011;62078;49.366;8.172;2022-11-02T16:59:00;8.50;;;2.20;;
28296;SDS011;62078;49.366;8.172;2022-11-02T17:01:34;9.10;;;2.00;;
28296;SDS011;62078;49.366;8.172;2022-11-02T17:04:16;6.80;;;2.27;;
28296;SDS011;62078;49.366;8.172;2022-11-02T17:06:52;8.50;;;2.13;;
28296;SDS011;62078;49.366;8.172;2022-11-02T17:11:57;8.82;;;2.15;;
28296;SDS011;62078;49.366;8.172;2022-11-02T17:14:25;7.88;;;2.15;;
28296;SDS011;62078;49.366;8.172;2022-11-02T17:17:03;8.27;;;2.25;;
28296;SDS011;62078;49.366;8.172;2022-11-02T17:19:52;9.50;;;2.22;;
28296;SDS011;62078;49.366;8.172;2022-11-02T17:22:58;5.07;;;1.80;;
28296;SDS011;62078;49.366;8.172;2022-11-02T17:27:57;5.75;;;1.60;;
28296;SDS011;62078;49.366;8.172;2022-11-02T17:32:55;6.47;;;2.10;;
28296;SDS011;62078;49.366;8.172;2022-11-02T17:35:22;4.70;;;1.63;;
28296;SDS011;62078;49.366;8.172;2022-11-02T17:37:47;6.75;;;1.83;;
28296;SDS011;62078;49.366;8.172;2022-11-02T17:40:14;7.15;;;1.83;;
28296;SDS011;62078;49.366;8.172;2022-11-02T17:42:39;8.30;;;2.10;;
28296;SDS011;62078;49.366;8.172;2022-11-02T17:47:57;6.55;;;1.83;;
28296;SDS011;62078;49.366;8.172;2022-11-02T17:50:24;6.32;;;2.25;;
28296;SDS011;62078;49.366;8.172;2022-11-02T17:52:51;8.40;;;2.10;;
28296;SDS011;62078;49.366;8.172;2022-11-02T17:55:18;7.38;;;1.98;;
28296;SDS011;62078;49.366;8.172;2022-11-02T17:57:47;10.13;;;2.05;;
28296;SDS011;62078;49.366;8.172;2022-11-02T18:00:14;7.85;;;2.10;;
28296;SDS011;62078;49.366;8.172;2022-11-02T18:02:41;8.10;;;2.22;;
28296;SDS011;62078;49.366;8.172;2022-11-02T18:05:11;9.77;;;2.22;;
28296;SDS011;62078;49.366;8.172;2022-11-02T18:07:40;10.88;;;2.17;;
28296;SDS011;62078;49.366;8.172;2022-11-02T18:10:06;7.82;;;1.85;;
28296;SDS011;62078;49.366;8.172;2022-11-02T18:12:32;8.32;;;1.90;;
28296;SDS011;62078;49.366;8.172;2022-11-02T18:14:58;16.70;;;2.42;;
28296;SDS011;62078;49.366;8.172;2022-11-02T18:17:24;9.63;;;1.92;;
28296;SDS011;62078;49.366;8.172;2022-11-02T18:19:50;12.55;;;2.20;;
28296;SDS011;62078;49.366;8.172;2022-11-02T18:22:16;13.13;;;2.35;;
28296;SDS011;62078;49.366;8.172;2022-11-02T18:24:42;16.75;;;2.53;;
28296;SDS011;62078;49.366;8.172;2022-11-02T18:27:08;12.90;;;2.05;;
28296;SDS011;62078;49.366;8.172;2022-11-02T18:29:34;11.15;;;1.98;;
28296;SDS011;62078;49.366;8.172;2022-11-02T18:32:01;7.00;;;1.92;;
28296;SDS011;62078;49.366;8.172;2022-11-02T18:34:26;6.22;;;2.05;;
28296;SDS011;62078;49.366;8.172;2022-11-02T18:36:52;8.40;;;2.10;;
28296;SDS011;62078;49.366;8.172;2022-11-02T18:39:18;6.85;;;2.08;;
28296;SDS011;62078;49.366;8.172;2022-11-02T18:41:44;7.97;;;1.83;;
28296;SDS011;62078;49.366;8.172;2022-11-02T18:44:09;13.07;;;2.50;;
28296;SDS011;62078;49.366;8.172;2022-11-02T18:46:35;8.98;;;2.03;;
28296;SDS011;62078;49.366;8.172;2022-11-02T18:49:01;11.57;;;2.75;;
28296;SDS011;62078;49.366;8.172;2022-11-02T18:51:27;7.53;;;2.10;;
28296;SDS011;62078;49.366;8.172;2022-11-02T18:54:03;7.10;;;2.13;;
28296;SDS011;62078;49.366;8.172;2022-11-02T18:56:32;9.02;;;2.42;;
28296;SDS011;62078;49.366;8.172;2022-11-02T18:58:58;8.60;;;2.45;;
28296;SDS011;62078;49.366;8.172;2022-11-02T19:01:25;7.32;;;2.47;;
28296;SDS011;62078;49.366;8.172;2022-11-02T19:03:53;5.93;;;1.90;;
28296;SDS011;62078;49.366;8.172;2022-11-02T19:06:21;9.20;;;2.45;;
28296;SDS011;62078;49.366;8.172;2022-11-02T19:09:06;7.32;;;2.28;;
28296;SDS011;62078;49.366;8.172;2022-11-02T19:11:51;5.50;;;1.80;;
28296;SDS011;62078;49.366;8.172;2022-11-02T19:14:21;10.38;;;3.13;;
28296;SDS011;62078;49.366;8.172;2022-11-02T19:16:48;9.20;;;2.60;;
28296;SDS011;62078;49.366;8.172;2022-11-02T19:19:14;6.32;;;1.73;;
28296;SDS011;62078;49.366;8.172;2022-11-02T19:21:42;6.13;;;2.30;;
28296;SDS011;62078;49.366;8.172;2022-11-02T19:24:08;8.27;;;2.60;;
28296;SDS011;62078;49.366;8.172;2022-11-02T19:26:35;8.77;;;2.53;;
28296;SDS011;62078;49.366;8.172;2022-11-02T19:29:01;6.43;;;2.08;;
28296;SDS011;62078;49.366;8.172;2022-11-02T19:31:27;6.40;;;2.35;;
28296;SDS011;62078;49.366;8.172;2022-11-02T19:33:53;6.88;;;2.05;;
28296;SDS011;62078;49.366;8.172;2022-11-02T19:36:20;4.85;;;2.00;;
28296;SDS011;62078;49.366;8.172;2022-11-02T19:38:46;7.40;;;2.17;;
28296;SDS011;62078;49.366;8.172;2022-11-02T19:41:13;8.02;;;2.30;;
28296;SDS011;62078;49.366;8.172;2022-11-02T19:43:41;11.02;;;2.58;;
28296;SDS011;62078;49.366;8.172;2022-11-02T19:46:12;8.38;;;2.05;;
28296;SDS011;62078;49.366;8.172;2022-11-02T19:48:42;5.60;;;1.75;;
28296;SDS011;62078;49.366;8.172;2022-11-02T19:51:09;6.20;;;1.63;;
28296;SDS011;62078;49.366;8.172;2022-11-02T19:53:37;8.85;;;2.15;;
28296;SDS011;62078;49.366;8.172;2022-11-02T19:56:05;6.28;;;2.08;;
28296;SDS011;62078;49.366;8.172;2022-11-02T19:58:34;5.95;;;1.77;;
28296;SDS011;62078;49.366;8.172;2022-11-02T20:01:05;4.78;;;2.42;;
28296;SDS011;62078;49.366;8.172;2022-11-02T20:03:32;6.50;;;2.33;;
28296;SDS011;62078;49.366;8.172;2022-11-02T20:05:58;6.82;;;1.90;;
28296;SDS011;62078;49.366;8.172;2022-11-02T20:08:25;5.78;;;1.60;;
28296;SDS011;62078;49.366;8.172;2022-11-02T20:10:51;5.32;;;1.90;;
28296;SDS011;62078;49.366;8.172;2022-11-02T20:13:17;7.00;;;1.92;;
28296;SDS011;62078;49.366;8.172;2022-11-02T20:15:42;4.30;;;1.83;;
28296;SDS011;62078;49.366;8.172;2022-11-02T20:18:08;6.07;;;1.80;;
28296;SDS011;62078;49.366;8.172;2022-11-02T20:20:34;4.22;;;1.70;;
28296;SDS011;62078;49.366;8.172;2022-11-02T20:23:00;4.63;;;1.70;;
28296;SDS011;62078;49.366;8.172;2022-11-02T20:25:26;5.80;;;2.20;;
28296;SDS011;62078;49.366;8.172;2022-11-02T20:27:52;5.40;;;2.42;;
28296;SDS011;62078;49.366;8.172;2022-11-02T20:30:18;8.10;;;2.35;;
28296;SDS011;62078;49.366;8.172;2022-11-02T20:32:47;7.30;;;1.80;;
28296;SDS011;62078;49.366;8.172;2022-11-02T20:35:16;5.03;;;2.10;;
28296;SDS011;62078;49.366;8.172;2022-11-02T20:37:46;4.75;;;2.05;;
28296;SDS011;62078;49.366;8.172;2022-11-02T20:40:13;6.90;;;1.98;;
28296;SDS011;62078;49.366;8.172;2022-11-02T20:42:40;5.25;;;1.77;;
28296;SDS011;62078;49.366;8.172;2022-11-02T20:45:06;6.97;;;2.13;;